createdAt,value
2022-12-08T00:00:13.562Z,2.81
2022-12-08T00:02:42.563Z,2.73
2022-12-08T00:05:28.489Z,2.73
2022-12-08T00:08:14.192Z,2.76
2022-12-08T00:10:49.281Z,2.74
2022-12-08T00:13:16.836Z,2.73
2022-12-08T00:15:43.616Z,2.70
2022-12-08T00:18:10.441Z,2.68
2022-12-08T00:20:37.300Z,2.67
2022-12-08T00:23:04.546Z,2.71
2022-12-08T00:25:32.108Z,2.72
2022-12-08T00:27:58.928Z,2.59
2022-12-08T00:30:25.775Z,2.58
2022-12-08T00:32:52.661Z,2.57
2022-12-08T00:35:19.581Z,2.49
2022-12-08T00:37:46.831Z,2.52
2022-12-08T03:58:55.131Z,1.23
2022-12-08T04:01:22.511Z,1.30
2022-12-08T04:03:49.911Z,1.34
2022-12-08T04:06:17.019Z,1.31
2022-12-08T04:08:44.204Z,1.37
2022-12-08T04:11:11.730Z,1.41
2022-12-08T04:13:40.101Z,1.46
2022-12-08T04:16:08.344Z,1.50
2022-12-08T04:18:36.080Z,1.57
2022-12-08T04:21:03.142Z,1.62
2022-12-08T07:08:33.678Z,2.38
2022-12-08T07:11:00.568Z,2.38
2022-12-08T07:13:27.398Z,2.53
2022-12-08T07:15:54.239Z,2.73
2022-12-08T07:18:21.714Z,2.97
2022-12-08T07:20:48.620Z,3.14
2022-12-08T07:23:15.596Z,3.38
2022-12-08T07:25:42.488Z,3.61
2022-12-08T07:28:11.866Z,3.87
2022-12-08T07:30:41.295Z,4.10
2022-12-08T07:33:08.205Z,4.52
2022-12-08T07:35:35.440Z,4.90
2022-12-08T07:38:02.683Z,5.21
2022-12-08T07:40:29.717Z,5.39
2022-12-08T07:42:56.669Z,5.46
2022-12-08T07:45:29.780Z,5.50
2022-12-08T07:47:58.273Z,6.01
2022-12-08T07:50:25.061Z,6.12
2022-12-08T07:52:51.854Z,6.60
2022-12-08T07:55:18.678Z,6.87
2022-12-08T07:57:45.566Z,7.06
2022-12-08T08:00:12.927Z,7.12
2022-12-08T08:02:40.342Z,7.18
2022-12-08T08:05:08.078Z,7.22
2022-12-08T08:07:35.207Z,7.50
2022-12-08T08:10:02.286Z,7.87
2022-12-08T08:12:32.091Z,8.21
2022-12-08T08:15:01.115Z,8.48
2022-12-08T08:17:29.829Z,7.95
2022-12-08T08:19:57.024Z,6.87
2022-12-08T08:22:25.360Z,6.51
2022-12-08T08:24:52.748Z,5.96
2022-12-08T08:27:20.126Z,5.75
2022-12-08T08:29:46.902Z,5.49
2022-12-08T08:32:16.876Z,5.46
2022-12-08T08:34:43.719Z,5.40
2022-12-08T08:37:10.578Z,5.13
2022-12-08T08:39:37.474Z,5.10
2022-12-08T08:42:04.537Z,5.09
2022-12-08T08:44:36.521Z,5.27
2022-12-08T08:47:05.912Z,5.26
2022-12-08T08:49:32.771Z,5.33
2022-12-08T08:51:59.717Z,5.29
2022-12-08T08:54:29.964Z,5.30
2022-12-08T08:57:01.698Z,5.28
2022-12-08T08:59:31.598Z,5.28
2022-12-08T09:01:59.926Z,5.34
2022-12-08T09:04:29.213Z,5.43
2022-12-08T09:06:56.337Z,5.53
2022-12-08T09:09:26.723Z,5.55
2022-12-08T09:11:55.824Z,5.78
2022-12-08T09:14:23.790Z,5.89
2022-12-08T09:16:53.149Z,5.91
2022-12-08T09:19:22.488Z,5.98
2022-12-08T09:21:49.376Z,6.07
2022-12-08T09:24:18.017Z,6.18
2022-12-08T09:26:45.670Z,6.23
2022-12-08T09:29:14.356Z,6.36
2022-12-08T09:31:42.183Z,6.70
2022-12-08T09:34:12.242Z,6.98
2022-12-08T09:36:40.411Z,7.34
2022-12-08T09:39:07.825Z,7.53
2022-12-08T09:41:54.362Z,7.71
2022-12-08T09:44:30.575Z,7.99
2022-12-08T09:47:00.813Z,8.39
2022-12-08T09:50:17.208Z,8.70
2022-12-08T09:53:00.010Z,8.60
2022-12-08T09:55:55.992Z,8.54
2022-12-08T09:58:41.619Z,8.60
2022-12-08T10:01:12.283Z,8.66
2022-12-08T10:03:41.639Z,8.75
2022-12-08T10:06:08.415Z,8.81
2022-12-08T10:09:12.790Z,8.85
2022-12-08T10:11:56.177Z,9.08
2022-12-08T10:14:55.008Z,9.38
2022-12-08T10:17:26.810Z,9.60
2022-12-08T10:20:04.261Z,9.93
2022-12-08T10:22:37.704Z,10.03
2022-12-08T10:25:32.333Z,10.18
2022-12-08T10:27:59.415Z,10.22
2022-12-08T10:30:26.499Z,10.25
2022-12-08T10:32:55.202Z,10.18
2022-12-08T10:35:25.397Z,10.25
2022-12-08T10:37:56.773Z,9.88
2022-12-08T10:40:27.444Z,9.92
2022-12-08T10:42:57.570Z,10.18
2022-12-08T10:45:45.174Z,10.39
2022-12-08T10:48:29.537Z,10.73
2022-12-08T10:50:58.182Z,10.89
2022-12-08T10:53:44.677Z,11.05
2022-12-08T10:56:18.319Z,11.17
2022-12-08T10:58:47.562Z,11.24
2022-12-08T11:01:21.234Z,11.36
2022-12-08T11:03:51.359Z,11.47
2022-12-08T11:06:20.189Z,11.49
2022-12-08T11:08:54.133Z,11.53
2022-12-08T11:11:29.120Z,11.67
2022-12-08T11:13:56.662Z,11.71
2022-12-08T11:16:23.938Z,11.68
2022-12-08T11:18:58.456Z,11.60
2022-12-08T11:21:37.210Z,11.60
2022-12-08T11:24:22.829Z,11.76
2022-12-08T11:27:09.173Z,11.88
2022-12-08T11:29:36.293Z,11.96
2022-12-08T11:32:07.642Z,11.98
2022-12-08T11:34:52.136Z,11.83
2022-12-08T11:37:41.491Z,11.60
2022-12-08T11:40:17.946Z,11.45
2022-12-08T11:43:06.446Z,11.34
2022-12-08T11:45:36.516Z,11.32
2022-12-08T11:48:11.372Z,11.30
2022-12-08T11:50:59.771Z,11.28
2022-12-08T11:54:03.797Z,11.25
2022-12-08T11:56:47.243Z,11.34
2022-12-08T11:59:29.657Z,11.21
2022-12-08T12:02:01.944Z,11.24
2022-12-08T12:04:37.654Z,11.35
2022-12-08T12:07:33.529Z,11.36
2022-12-08T12:10:19.979Z,11.22
2022-12-08T12:13:15.781Z,11.16
2022-12-08T12:16:06.843Z,11.08
2022-12-08T12:18:50.913Z,11.05
2022-12-08T12:21:31.466Z,11.01
2022-12-08T12:24:07.165Z,11.02
2022-12-08T12:27:03.220Z,11.13
2022-12-08T12:29:34.049Z,11.35
2022-12-08T12:32:04.909Z,11.37
2022-12-08T12:34:35.144Z,11.49
2022-12-08T12:37:17.371Z,11.64
2022-12-08T12:39:53.635Z,11.74
2022-12-08T12:42:43.721Z,11.73
2022-12-08T12:45:32.114Z,11.68
2022-12-08T12:48:02.257Z,11.68
2022-12-08T12:50:35.213Z,11.70
2022-12-08T12:53:26.481Z,11.61
2022-12-08T12:55:57.703Z,11.41
2022-12-08T12:58:27.601Z,11.40
2022-12-08T13:01:17.149Z,11.31
2022-12-08T13:04:02.508Z,11.20
2022-12-08T13:06:52.491Z,11.17
2022-12-08T13:09:33.987Z,11.14
2022-12-08T13:12:10.241Z,11.21
2022-12-08T13:15:02.540Z,11.42
2022-12-08T13:17:33.990Z,11.44
2022-12-08T13:20:05.489Z,11.40
2022-12-08T13:23:10.979Z,11.37
2022-12-08T13:25:40.743Z,11.46
2022-12-08T13:28:34.015Z,11.42
2022-12-08T13:31:02.536Z,11.24
2022-12-08T13:33:41.303Z,11.14
2022-12-08T13:36:21.489Z,11.09
2022-12-08T13:38:54.271Z,10.90
2022-12-08T13:41:24.926Z,10.93
2022-12-08T13:45:03.603Z,10.87
2022-12-08T13:47:25.128Z,10.77
2022-12-08T13:50:55.732Z,10.77
2022-12-08T13:58:36.804Z,10.58
2022-12-08T14:01:25.563Z,10.52
2022-12-08T14:04:33.742Z,10.47
2022-12-08T14:06:48.914Z,10.47
2022-12-08T14:09:22.185Z,10.40
2022-12-08T14:11:58.559Z,10.35
2022-12-08T14:15:02.554Z,10.22
2022-12-08T14:17:30.446Z,10.19
2022-12-08T14:20:02.663Z,10.13
2022-12-08T14:22:35.096Z,10.04
2022-12-08T14:25:10.653Z,9.99
2022-12-08T14:27:38.181Z,9.97
2022-12-08T14:30:20.038Z,9.93
2022-12-08T14:32:53.147Z,9.86
2022-12-08T14:35:31.218Z,9.83
2022-12-08T14:38:04.084Z,9.69
2022-12-08T14:40:35.340Z,9.78
2022-12-08T14:43:08.338Z,9.73
2022-12-08T14:45:41.524Z,9.71
2022-12-08T14:48:38.618Z,9.64
2022-12-08T14:51:21.121Z,9.59
2022-12-08T14:54:00.145Z,9.53
2022-12-08T14:56:33.789Z,9.46
2022-12-08T14:59:06.735Z,9.33
2022-12-08T15:01:34.623Z,9.31
2022-12-08T15:04:08.651Z,9.25
2022-12-08T15:06:36.318Z,9.22
2022-12-08T15:09:17.997Z,9.19
2022-12-08T15:11:44.909Z,9.11
2022-12-08T15:14:30.697Z,9.11
2022-12-08T15:16:57.744Z,9.04
2022-12-08T15:19:34.071Z,9.08
2022-12-08T15:22:18.626Z,9.11
2022-12-08T15:24:45.564Z,9.15
2022-12-08T15:27:19.022Z,9.10
2022-12-08T15:29:47.342Z,9.08
2022-12-08T15:32:18.155Z,9.08
2022-12-08T15:34:45.214Z,9.03
2022-12-08T15:37:26.600Z,9.03
2022-12-08T15:39:54.000Z,9.02
2022-12-08T15:42:20.806Z,8.95
2022-12-08T15:44:47.669Z,8.88
2022-12-08T15:47:17.039Z,8.87
2022-12-08T15:49:44.324Z,8.78
2022-12-08T15:52:16.909Z,8.66
2022-12-08T15:54:44.053Z,8.70
2022-12-08T16:09:33.778Z,8.44
2022-12-08T16:12:19.491Z,8.44
2022-12-08T16:15:47.334Z,8.44
2022-12-08T16:17:35.427Z,8.35
2022-12-08T16:20:03.676Z,8.33
2022-12-08T16:25:21.779Z,8.24
2022-12-08T16:28:29.579Z,8.19
2022-12-08T16:30:37.829Z,8.16
2022-12-08T16:33:05.484Z,8.13
2022-12-08T16:35:34.524Z,8.06
2022-12-08T16:38:02.574Z,8.02
2022-12-08T16:40:33.738Z,7.95
2022-12-08T16:43:00.785Z,7.91
2022-12-08T16:45:29.889Z,7.89
2022-12-08T16:48:01.259Z,7.84
2022-12-08T16:50:31.145Z,7.79
2022-12-08T16:53:02.253Z,7.72
2022-12-08T16:55:29.655Z,7.69
2022-12-08T16:57:57.887Z,7.65
2022-12-08T17:00:27.105Z,7.66
2022-12-08T17:02:55.975Z,7.65
2022-12-08T17:05:24.793Z,7.61
2022-12-08T17:07:59.847Z,7.60
2022-12-08T17:10:29.639Z,7.59
2022-12-08T17:12:56.839Z,7.58
2022-12-08T17:15:25.913Z,7.57
2022-12-08T17:17:53.993Z,7.54
2022-12-08T17:20:24.571Z,7.49
2022-12-08T17:22:59.044Z,7.51
2022-12-08T17:25:28.282Z,7.49
2022-12-08T17:27:56.588Z,7.41
2022-12-08T17:30:23.655Z,7.46
2022-12-08T17:32:52.904Z,7.47
2022-12-08T17:35:20.865Z,7.45
2022-12-08T17:37:48.008Z,7.38
2022-12-08T17:40:14.863Z,7.38
2022-12-08T17:42:42.520Z,7.39
2022-12-08T17:45:12.480Z,7.37
2022-12-08T17:47:39.554Z,7.36
2022-12-08T17:50:07.521Z,7.32
2022-12-08T17:52:34.759Z,7.33
2022-12-08T17:55:01.709Z,7.32
2022-12-08T17:57:29.302Z,7.26
2022-12-08T17:59:57.113Z,7.21
2022-12-08T18:02:26.474Z,7.19
2022-12-08T18:04:53.562Z,7.17
2022-12-08T18:07:20.642Z,7.19
2022-12-08T18:09:47.728Z,7.18
2022-12-08T18:12:19.302Z,7.15
2022-12-08T18:14:50.628Z,7.14
2022-12-08T18:17:17.507Z,7.16
2022-12-08T18:19:44.389Z,7.08
2022-12-08T18:22:12.406Z,7.12
2022-12-08T18:24:39.300Z,7.12
2022-12-08T18:27:06.161Z,7.15
2022-12-08T18:29:33.335Z,7.10
2022-12-08T18:32:00.269Z,7.18
2022-12-08T18:34:27.579Z,7.17
2022-12-08T18:36:54.393Z,7.17
2022-12-08T18:39:30.400Z,7.15
2022-12-08T18:41:58.642Z,7.18
2022-12-08T18:44:25.499Z,7.13
2022-12-08T18:46:52.406Z,7.09
2022-12-08T18:49:22.982Z,7.07
2022-12-08T18:51:49.878Z,7.01
2022-12-08T18:54:16.780Z,7.05
2022-12-08T18:56:44.065Z,7.05
2022-12-08T18:59:12.552Z,7.03
2022-12-08T19:01:40.186Z,7.04
2022-12-08T19:04:28.056Z,6.90
2022-12-08T19:06:56.625Z,6.75
2022-12-08T19:09:24.643Z,6.84
2022-12-08T19:11:52.049Z,6.82
2022-12-08T19:14:25.759Z,6.73
2022-12-08T19:16:54.721Z,6.77
2022-12-08T19:19:22.288Z,6.73
2022-12-08T19:21:49.186Z,6.73
2022-12-08T19:24:16.175Z,6.72
2022-12-08T19:26:43.320Z,6.72
2022-12-08T19:29:11.777Z,6.72
2022-12-08T19:31:40.612Z,6.72
2022-12-08T19:34:09.517Z,6.70
2022-12-08T19:36:42.480Z,6.70
2022-12-08T19:39:35.325Z,6.75
2022-12-08T19:42:27.082Z,6.76
2022-12-08T19:44:54.208Z,6.80
2022-12-08T19:47:26.695Z,6.79
2022-12-08T19:50:15.227Z,6.82
2022-12-08T19:52:42.759Z,6.77
2022-12-08T19:55:12.693Z,6.77
2022-12-08T19:57:39.653Z,6.74
2022-12-08T20:00:08.651Z,6.71
2022-12-08T20:02:36.837Z,6.69
2022-12-08T20:05:05.942Z,6.70
2022-12-08T20:07:34.074Z,6.63
2022-12-08T20:10:04.953Z,6.79
2022-12-08T20:12:32.004Z,6.70
2022-12-08T20:14:58.829Z,6.59
2022-12-08T20:17:25.729Z,6.55
2022-12-08T20:19:52.678Z,6.55
2022-12-08T20:22:20.734Z,6.47
2022-12-08T20:24:58.260Z,6.35
2022-12-08T20:27:28.726Z,6.26
2022-12-08T20:29:56.553Z,6.20
2022-12-08T20:32:23.363Z,6.02
2022-12-08T20:34:50.287Z,6.05
2022-12-08T20:37:17.103Z,5.98
2022-12-08T20:39:44.078Z,5.92
2022-12-08T20:42:14.069Z,5.87
2022-12-08T20:44:44.618Z,5.86
2022-12-08T20:47:13.118Z,5.82
2022-12-08T20:49:40.100Z,5.77
2022-12-08T20:52:07.680Z,5.71
2022-12-08T20:54:35.436Z,5.73
2022-12-08T20:57:02.683Z,5.65
2022-12-08T20:59:29.660Z,5.65
2022-12-08T21:01:57.138Z,5.65
2022-12-08T21:04:24.596Z,5.57
2022-12-08T21:06:51.877Z,5.56
2022-12-08T21:09:19.176Z,5.48
2022-12-08T21:11:47.551Z,5.45
2022-12-08T21:14:14.622Z,5.44
2022-12-08T21:16:42.927Z,5.38
2022-12-08T21:19:11.632Z,5.39
2022-12-08T21:21:39.080Z,5.40
2022-12-08T21:24:06.564Z,5.34
2022-12-08T21:26:33.468Z,5.38
2022-12-08T21:29:00.396Z,5.41
2022-12-08T21:31:29.510Z,5.39
2022-12-08T21:33:57.733Z,5.40
2022-12-08T21:36:25.975Z,5.44
2022-12-08T21:38:54.897Z,5.45
2022-12-08T21:41:42.486Z,5.44
2022-12-08T21:44:11.934Z,5.42
2022-12-08T21:46:39.316Z,5.40
2022-12-08T21:49:06.709Z,5.36
2022-12-08T21:51:37.883Z,5.34
2022-12-08T21:54:05.544Z,5.37
2022-12-08T21:56:32.637Z,5.36
2022-12-08T21:58:59.561Z,5.34
2022-12-08T22:01:26.590Z,5.33
2022-12-08T22:03:53.828Z,5.31
2022-12-08T22:06:23.535Z,5.35
2022-12-08T22:08:50.524Z,5.33
2022-12-08T22:11:18.332Z,5.32
2022-12-08T22:13:45.379Z,5.30
2022-12-08T22:16:15.060Z,5.34
2022-12-08T22:18:42.585Z,5.31
2022-12-08T22:21:17.234Z,5.33
2022-12-08T22:23:44.581Z,5.28
2022-12-08T22:26:12.212Z,5.34
2022-12-08T22:28:42.941Z,5.40
2022-12-08T22:31:12.686Z,5.42
2022-12-08T22:33:41.052Z,5.40
2022-12-08T22:36:13.691Z,5.42
2022-12-08T22:38:41.390Z,5.42
2022-12-08T22:41:08.500Z,5.22
2022-12-08T22:43:36.750Z,5.18
2022-12-08T22:46:14.593Z,5.07
2022-12-08T22:48:41.948Z,4.95
2022-12-08T22:51:09.599Z,4.93
2022-12-08T22:53:37.570Z,4.89
2022-12-08T22:56:10.007Z,4.91
2022-12-08T22:58:38.501Z,4.94
2022-12-08T23:01:06.083Z,4.99
2022-12-08T23:03:33.963Z,5.03
2022-12-08T23:06:02.266Z,5.04
2022-12-08T23:08:29.488Z,4.97
2022-12-08T23:10:56.481Z,5.03
2022-12-08T23:13:23.560Z,5.02
2022-12-08T23:15:50.474Z,4.99
2022-12-08T23:18:19.360Z,4.99
2022-12-08T23:20:47.891Z,4.99
2022-12-08T23:23:15.488Z,5.05
2022-12-08T23:25:44.015Z,5.04
2022-12-08T23:28:11.403Z,4.98
2022-12-08T23:30:43.164Z,4.99
2022-12-08T23:33:12.039Z,4.99
2022-12-08T23:35:39.042Z,4.97
2022-12-08T23:38:05.860Z,4.92
2022-12-08T23:40:32.854Z,4.92
2022-12-08T23:42:59.662Z,4.97
2022-12-08T23:45:26.501Z,4.95
2022-12-08T23:47:53.670Z,4.97
2022-12-08T23:50:20.596Z,4.98
2022-12-08T23:52:47.424Z,4.87
2022-12-08T23:55:14.222Z,4.92
2022-12-08T23:57:41.051Z,4.89
